sensor_id;sensor_type;location;lat;lon;timestamp;pressure;altitude;pressure_sealevel;temperature;humidity
77017;BME280;65949;53.132;17.930;2023-10-19T00:00:24;100655.38;;;3.76;79.40
77017;BME280;65949;53.132;17.930;2023-10-19T00:03:12;100650.67;;;3.71;79.44
77017;BME280;65949;53.132;17.930;2023-10-19T00:05:39;100644.96;;;3.68;79.57
77017;BME280;65949;53.132;17.930;2023-10-19T00:08:06;100643.23;;;3.64;79.65
77017;BME280;65949;53.132;17.930;2023-10-19T00:10:41;100642.27;;;3.60;79.58
77017;BME280;65949;53.132;17.930;2023-10-19T00:13:11;100637.70;;;3.56;79.30
77017;BME280;65949;53.132;17.930;2023-10-19T00:15:39;100635.61;;;3.52;79.51
77017;BME280;65949;53.132;17.930;2023-10-19T00:18:16;100631.52;;;3.48;79.48
77017;BME280;65949;53.132;17.930;2023-10-19T00:20:44;100631.10;;;3.44;79.27
77017;BME280;65949;53.132;17.930;2023-10-19T00:23:13;100631.88;;;3.39;79.10
77017;BME280;65949;53.132;17.930;2023-10-19T00:25:40;100622.25;;;3.34;79.28
77017;BME280;65949;53.132;17.930;2023-10-19T00:28:10;100617.69;;;3.30;78.98
77017;BME280;65949;53.132;17.930;2023-10-19T00:30:41;100615.29;;;3.26;79.01
77017;BME280;65949;53.132;17.930;2023-10-19T00:33:10;100609.13;;;3.23;79.29
77017;BME280;65949;53.132;17.930;2023-10-19T00:35:44;100604.98;;;3.19;79.47
77017;BME280;65949;53.132;17.930;2023-10-19T00:38:29;100600.64;;;3.16;79.25
77017;BME280;65949;53.132;17.930;2023-10-19T00:41:02;100606.29;;;3.12;79.52
77017;BME280;65949;53.132;17.930;2023-10-19T00:43:34;100603.64;;;3.08;79.54
77017;BME280;65949;53.132;17.930;2023-10-19T00:46:03;100595.61;;;3.06;79.58
77017;BME280;65949;53.132;17.930;2023-10-19T00:48:33;100600.17;;;3.04;79.72
77017;BME280;65949;53.132;17.930;2023-10-19T00:51:01;100596.46;;;3.01;79.41
77017;BME280;65949;53.132;17.930;2023-10-19T00:53:54;100598.30;;;2.97;79.37
77017;BME280;65949;53.132;17.930;2023-10-19T00:56:23;100592.53;;;2.94;79.40
77017;BME280;65949;53.132;17.930;2023-10-19T00:58:50;100592.77;;;2.93;79.33
77017;BME280;65949;53.132;17.930;2023-10-19T01:01:24;100589.54;;;2.90;79.62
77017;BME280;65949;53.132;17.930;2023-10-19T01:03:51;100589.27;;;2.89;79.44
77017;BME280;65949;53.132;17.930;2023-10-19T01:06:25;100589.18;;;2.89;79.63
77017;BME280;65949;53.132;17.930;2023-10-19T01:08:53;100589.81;;;2.89;79.84
77017;BME280;65949;53.132;17.930;2023-10-19T01:11:20;100587.23;;;2.89;79.78
77017;BME280;65949;53.132;17.930;2023-10-19T01:13:47;100585.90;;;2.88;79.79
77017;BME280;65949;53.132;17.930;2023-10-19T01:16:15;100581.78;;;2.86;79.50
77017;BME280;65949;53.132;17.930;2023-10-19T01:18:48;100577.20;;;2.85;79.48
77017;BME280;65949;53.132;17.930;2023-10-19T01:21:22;100576.91;;;2.84;79.62
77017;BME280;65949;53.132;17.930;2023-10-19T01:23:52;100578.70;;;2.84;79.85
77017;BME280;65949;53.132;17.930;2023-10-19T01:26:19;100574.73;;;2.80;79.95
77017;BME280;65949;53.132;17.930;2023-10-19T01:28:52;100567.18;;;2.75;80.11
77017;BME280;65949;53.132;17.930;2023-10-19T01:31:28;100561.13;;;2.73;80.27
77017;BME280;65949;53.132;17.930;2023-10-19T01:33:58;100562.11;;;2.72;80.04
77017;BME280;65949;53.132;17.930;2023-10-19T01:36:25;100560.81;;;2.72;80.10
77017;BME280;65949;53.132;17.930;2023-10-19T01:38:56;100552.86;;;2.71;80.30
77017;BME280;65949;53.132;17.930;2023-10-19T01:41:28;100546.89;;;2.70;80.14
77017;BME280;65949;53.132;17.930;2023-10-19T01:43:57;100546.58;;;2.69;80.03
77017;BME280;65949;53.132;17.930;2023-10-19T01:46:31;100543.05;;;2.67;79.81
77017;BME280;65949;53.132;17.930;2023-10-19T01:49:02;100540.45;;;2.65;79.81
77017;BME280;65949;53.132;17.930;2023-10-19T01:51:33;100532.81;;;2.63;79.94
77017;BME280;65949;53.132;17.930;2023-10-19T01:54:05;100526.21;;;2.62;80.56
77017;BME280;65949;53.132;17.930;2023-10-19T01:56:33;100518.92;;;2.62;80.64
77017;BME280;65949;53.132;17.930;2023-10-19T01:59:03;100517.85;;;2.62;80.90
77017;BME280;65949;53.132;17.930;2023-10-19T02:01:35;100515.91;;;2.62;80.85
77017;BME280;65949;53.132;17.930;2023-10-19T02:04:04;100515.39;;;2.65;81.02
77017;BME280;65949;53.132;17.930;2023-10-19T02:06:34;100515.02;;;2.65;80.97
77017;BME280;65949;53.132;17.930;2023-10-19T02:09:08;100508.39;;;2.65;81.20
77017;BME280;65949;53.132;17.930;2023-10-19T02:11:52;100504.67;;;2.64;80.97
77017;BME280;65949;53.132;17.930;2023-10-19T02:14:20;100500.31;;;2.62;81.22
77017;BME280;65949;53.132;17.930;2023-10-19T02:16:48;100492.77;;;2.60;81.14
77017;BME280;65949;53.132;17.930;2023-10-19T02:19:18;100487.12;;;2.60;81.16
77017;BME280;65949;53.132;17.930;2023-10-19T02:21:48;100483.88;;;2.59;81.23
77017;BME280;65949;53.132;17.930;2023-10-19T02:24:15;100477.58;;;2.59;81.54
77017;BME280;65949;53.132;17.930;2023-10-19T02:26:42;100471.77;;;2.59;81.23
77017;BME280;65949;53.132;17.930;2023-10-19T02:29:10;100473.64;;;2.56;81.05
77017;BME280;65949;53.132;17.930;2023-10-19T02:31:37;100473.48;;;2.55;81.08
77017;BME280;65949;53.132;17.930;2023-10-19T02:34:04;100468.73;;;2.54;81.22
77017;BME280;65949;53.132;17.930;2023-10-19T02:36:33;100466.79;;;2.54;81.31
77017;BME280;65949;53.132;17.930;2023-10-19T02:39:01;100461.23;;;2.55;81.78
77017;BME280;65949;53.132;17.930;2023-10-19T02:41:42;100454.40;;;2.55;81.81
77017;BME280;65949;53.132;17.930;2023-10-19T02:44:12;100450.56;;;2.56;81.73
77017;BME280;65949;53.132;17.930;2023-10-19T02:46:43;100442.02;;;2.56;81.98
77017;BME280;65949;53.132;17.930;2023-10-19T02:49:12;100439.68;;;2.55;81.66
77017;BME280;65949;53.132;17.930;2023-10-19T02:51:43;100433.02;;;2.55;81.72
77017;BME280;65949;53.132;17.930;2023-10-19T02:54:15;100431.45;;;2.55;81.75
77017;BME280;65949;53.132;17.930;2023-10-19T02:56:53;100429.27;;;2.56;81.91
77017;BME280;65949;53.132;17.930;2023-10-19T02:59:21;100421.83;;;2.57;81.97
77017;BME280;65949;53.132;17.930;2023-10-19T03:01:54;100415.70;;;2.56;82.10
77017;BME280;65949;53.132;17.930;2023-10-19T03:04:39;100403.86;;;2.56;82.47
77017;BME280;65949;53.132;17.930;2023-10-19T03:07:07;100401.80;;;2.56;82.46
77017;BME280;65949;53.132;17.930;2023-10-19T03:09:34;100402.79;;;2.58;82.74
77017;BME280;65949;53.132;17.930;2023-10-19T03:12:04;100402.86;;;2.59;82.71
77017;BME280;65949;53.132;17.930;2023-10-19T03:14:35;100403.05;;;2.60;82.43
77017;BME280;65949;53.132;17.930;2023-10-19T03:17:03;100404.43;;;2.61;82.27
77017;BME280;65949;53.132;17.930;2023-10-19T03:19:31;100404.23;;;2.62;82.16
77017;BME280;65949;53.132;17.930;2023-10-19T03:21:58;100402.39;;;2.63;82.21
77017;BME280;65949;53.132;17.930;2023-10-19T03:24:27;100396.92;;;2.64;82.65
77017;BME280;65949;53.132;17.930;2023-10-19T03:27:10;100395.31;;;2.67;82.63
77017;BME280;65949;53.132;17.930;2023-10-19T03:29:52;100388.79;;;2.67;82.60
77017;BME280;65949;53.132;17.930;2023-10-19T03:32:23;100385.39;;;2.67;82.59
77017;BME280;65949;53.132;17.930;2023-10-19T03:34:54;100386.81;;;2.67;82.26
77017;BME280;65949;53.132;17.930;2023-10-19T03:37:26;100383.09;;;2.66;82.38
77017;BME280;65949;53.132;17.930;2023-10-19T03:39:56;100375.54;;;2.66;82.63
77017;BME280;65949;53.132;17.930;2023-10-19T03:42:23;100369.88;;;2.66;82.17
77017;BME280;65949;53.132;17.930;2023-10-19T03:44:56;100367.93;;;2.67;82.41
77017;BME280;65949;53.132;17.930;2023-10-19T03:47:23;100368.50;;;2.67;82.11
77017;BME280;65949;53.132;17.930;2023-10-19T03:50:01;100369.27;;;2.66;82.02
77017;BME280;65949;53.132;17.930;2023-10-19T03:52:36;100363.64;;;2.66;82.34
77017;BME280;65949;53.132;17.930;2023-10-19T03:55:06;100362.98;;;2.67;82.26
77017;BME280;65949;53.132;17.930;2023-10-19T03:57:37;100359.58;;;2.68;82.13
77017;BME280;65949;53.132;17.930;2023-10-19T04:00:14;100355.30;;;2.69;82.24
77017;BME280;65949;53.132;17.930;2023-10-19T04:02:52;100351.57;;;2.71;82.52
77017;BME280;65949;53.132;17.930;2023-10-19T04:05:21;100342.36;;;2.75;83.26
77017;BME280;65949;53.132;17.930;2023-10-19T04:07:52;100344.87;;;2.79;83.72
77017;BME280;65949;53.132;17.930;2023-10-19T04:10:24;100347.41;;;2.81;83.71
77017;BME280;65949;53.132;17.930;2023-10-19T04:13:05;100352.02;;;2.84;83.26
77017;BME280;65949;53.132;17.930;2023-10-19T04:15:36;100349.92;;;2.85;83.23
77017;BME280;65949;53.132;17.930;2023-10-19T04:18:04;100348.59;;;2.88;83.71
77017;BME280;65949;53.132;17.930;2023-10-19T04:20:38;100342.80;;;2.90;83.70
77017;BME280;65949;53.132;17.930;2023-10-19T04:23:14;100340.07;;;2.90;84.22
77017;BME280;65949;53.132;17.930;2023-10-19T04:25:42;100343.04;;;2.90;84.03
77017;BME280;65949;53.132;17.930;2023-10-19T04:28:08;100336.94;;;2.91;83.94
77017;BME280;65949;53.132;17.930;2023-10-19T04:30:35;100332.77;;;2.92;83.78
77017;BME280;65949;53.132;17.930;2023-10-19T04:33:04;100330.09;;;2.90;83.96
77017;BME280;65949;53.132;17.930;2023-10-19T04:35:38;100328.88;;;2.88;83.81
77017;BME280;65949;53.132;17.930;2023-10-19T04:38:07;100332.12;;;2.87;83.79
77017;BME280;65949;53.132;17.930;2023-10-19T04:40:34;100324.93;;;2.86;83.70
77017;BME280;65949;53.132;17.930;2023-10-19T04:43:02;100323.59;;;2.86;83.91
77017;BME280;65949;53.132;17.930;2023-10-19T04:45:32;100321.14;;;2.84;84.30
77017;BME280;65949;53.132;17.930;2023-10-19T04:47:59;100311.19;;;2.83;84.21
77017;BME280;65949;53.132;17.930;2023-10-19T04:50:26;100306.79;;;2.82;84.00
77017;BME280;65949;53.132;17.930;2023-10-19T04:52:52;100305.95;;;2.82;84.04
77017;BME280;65949;53.132;17.930;2023-10-19T04:55:19;100308.48;;;2.82;83.86
77017;BME280;65949;53.132;17.930;2023-10-19T04:57:45;100307.98;;;2.82;83.89
77017;BME280;65949;53.132;17.930;2023-10-19T05:00:13;100306.75;;;2.82;84.04
77017;BME280;65949;53.132;17.930;2023-10-19T05:02:41;100309.51;;;2.84;83.97
77017;BME280;65949;53.132;17.930;2023-10-19T05:05:08;100308.86;;;2.84;83.89
77017;BME280;65949;53.132;17.930;2023-10-19T05:07:35;100307.67;;;2.84;83.73
77017;BME280;65949;53.132;17.930;2023-10-19T05:10:02;100311.36;;;2.84;83.43
77017;BME280;65949;53.132;17.930;2023-10-19T05:12:31;100304.20;;;2.83;83.77
77017;BME280;65949;53.132;17.930;2023-10-19T05:14:58;100300.16;;;2.84;84.31
77017;BME280;65949;53.132;17.930;2023-10-19T05:17:25;100295.98;;;2.84;84.19
77017;BME280;65949;53.132;17.930;2023-10-19T05:19:51;100293.59;;;2.85;84.38
77017;BME280;65949;53.132;17.930;2023-10-19T05:22:18;100293.54;;;2.85;84.68
77017;BME280;65949;53.132;17.930;2023-10-19T05:24:45;100301.02;;;2.86;84.64
77017;BME280;65949;53.132;17.930;2023-10-19T05:27:12;100302.71;;;2.87;85.04
77017;BME280;65949;53.132;17.930;2023-10-19T05:29:38;100304.80;;;2.89;84.76
77017;BME280;65949;53.132;17.930;2023-10-19T05:32:06;100308.42;;;2.90;85.03
77017;BME280;65949;53.132;17.930;2023-10-19T05:34:33;100314.29;;;2.94;84.65
77017;BME280;65949;53.132;17.930;2023-10-19T05:37:02;100312.26;;;2.96;84.84
77017;BME280;65949;53.132;17.930;2023-10-19T05:39:29;100308.78;;;2.99;85.33
77017;BME280;65949;53.132;17.930;2023-10-19T05:41:57;100314.60;;;3.00;85.38
77017;BME280;65949;53.132;17.930;2023-10-19T05:44:29;100308.33;;;3.02;85.53
77017;BME280;65949;53.132;17.930;2023-10-19T05:46:57;100306.66;;;3.03;85.82
77017;BME280;65949;53.132;17.930;2023-10-19T05:49:25;100310.77;;;3.05;85.64
77017;BME280;65949;53.132;17.930;2023-10-19T05:51:51;100311.23;;;3.09;85.96
77017;BME280;65949;53.132;17.930;2023-10-19T05:54:18;100310.76;;;3.14;85.74
77017;BME280;65949;53.132;17.930;2023-10-19T05:56:45;100304.70;;;3.18;85.57
77017;BME280;65949;53.132;17.930;2023-10-19T05:59:12;100298.29;;;3.20;86.09
77017;BME280;65949;53.132;17.930;2023-10-19T06:01:39;100286.48;;;3.22;86.24
77017;BME280;65949;53.132;17.930;2023-10-19T06:04:07;100289.41;;;3.25;85.98
77017;BME280;65949;53.132;17.930;2023-10-19T06:06:34;100291.39;;;3.29;86.48
77017;BME280;65949;53.132;17.930;2023-10-19T06:09:02;100293.64;;;3.34;86.30
77017;BME280;65949;53.132;17.930;2023-10-19T06:11:29;100293.04;;;3.40;86.31
77017;BME280;65949;53.132;17.930;2023-10-19T06:13:59;100293.77;;;3.45;86.46
77017;BME280;65949;53.132;17.930;2023-10-19T06:16:26;100294.30;;;3.50;85.98
77017;BME280;65949;53.132;17.930;2023-10-19T06:18:54;100296.81;;;3.54;85.97
77017;BME280;65949;53.132;17.930;2023-10-19T06:21:21;100301.19;;;3.58;86.41
77017;BME280;65949;53.132;17.930;2023-10-19T06:23:47;100296.47;;;3.62;86.29
77017;BME280;65949;53.132;17.930;2023-10-19T06:26:14;100293.52;;;3.67;85.99
77017;BME280;65949;53.132;17.930;2023-10-19T06:28:41;100299.48;;;3.72;86.27
77017;BME280;65949;53.132;17.930;2023-10-19T06:31:08;100295.77;;;3.80;86.36
77017;BME280;65949;53.132;17.930;2023-10-19T06:33:35;100291.95;;;3.86;86.55
77017;BME280;65949;53.132;17.930;2023-10-19T06:36:03;100289.46;;;3.92;86.26
77017;BME280;65949;53.132;17.930;2023-10-19T06:38:30;100289.94;;;3.99;86.34
77017;BME280;65949;53.132;17.930;2023-10-19T06:40:59;100291.12;;;4.05;86.57
77017;BME280;65949;53.132;17.930;2023-10-19T06:43:25;100292.63;;;4.11;86.46
77017;BME280;65949;53.132;17.930;2023-10-19T06:45:55;100291.48;;;4.16;85.97
77017;BME280;65949;53.132;17.930;2023-10-19T06:48:22;100294.23;;;4.22;86.25
77017;BME280;65949;53.132;17.930;2023-10-19T06:50:48;100289.79;;;4.29;86.07
77017;BME280;65949;53.132;17.930;2023-10-19T06:53:16;100282.35;;;4.34;85.91
77017;BME280;65949;53.132;17.930;2023-10-19T06:55:43;100266.59;;;4.40;85.96
77017;BME280;65949;53.132;17.930;2023-10-19T06:58:10;100265.48;;;4.45;85.75
77017;BME280;65949;53.132;17.930;2023-10-19T07:00:38;100269.23;;;4.52;85.40
77017;BME280;65949;53.132;17.930;2023-10-19T07:03:08;100263.14;;;4.58;85.46
77017;BME280;65949;53.132;17.930;2023-10-19T07:05:36;100261.25;;;4.64;85.17
77017;BME280;65949;53.132;17.930;2023-10-19T07:08:04;100252.50;;;4.70;85.06
77017;BME280;65949;53.132;17.930;2023-10-19T07:10:33;100253.83;;;4.76;85.01
77017;BME280;65949;53.132;17.930;2023-10-19T07:13:01;100248.02;;;4.81;84.84
77017;BME280;65949;53.132;17.930;2023-10-19T07:15:28;100249.23;;;4.87;84.67
77017;BME280;65949;53.132;17.930;2023-10-19T07:17:56;100244.95;;;4.94;84.45
77017;BME280;65949;53.132;17.930;2023-10-19T07:20:22;100236.02;;;5.00;84.24
77017;BME280;65949;53.132;17.930;2023-10-19T07:23:00;100233.09;;;5.07;83.84
77017;BME280;65949;53.132;17.930;2023-10-19T07:25:36;100235.66;;;5.13;83.60
77017;BME280;65949;53.132;17.930;2023-10-19T07:28:10;100234.87;;;5.17;83.22
77017;BME280;65949;53.132;17.930;2023-10-19T07:30:37;100234.02;;;5.21;83.05
77017;BME280;65949;53.132;17.930;2023-10-19T07:33:03;100229.83;;;5.23;82.91
77017;BME280;65949;53.132;17.930;2023-10-19T07:35:36;100226.15;;;5.26;82.88
77017;BME280;65949;53.132;17.930;2023-10-19T07:38:05;100229.23;;;5.29;82.82
77017;BME280;65949;53.132;17.930;2023-10-19T07:40:34;100228.42;;;5.33;82.63
77017;BME280;65949;53.132;17.930;2023-10-19T07:43:01;100221.88;;;5.36;82.54
77017;BME280;65949;53.132;17.930;2023-10-19T07:45:30;100218.99;;;5.39;82.08
77017;BME280;65949;53.132;17.930;2023-10-19T07:47:58;100216.91;;;5.44;82.30
77017;BME280;65949;53.132;17.930;2023-10-19T07:50:37;100219.27;;;5.51;82.23
77017;BME280;65949;53.132;17.930;2023-10-19T07:53:04;100215.83;;;5.58;81.68
77017;BME280;65949;53.132;17.930;2023-10-19T07:55:31;100204.46;;;5.63;81.41
77017;BME280;65949;53.132;17.930;2023-10-19T07:58:01;100202.35;;;5.69;81.25
77017;BME280;65949;53.132;17.930;2023-10-19T08:00:29;100197.73;;;5.76;81.18
77017;BME280;65949;53.132;17.930;2023-10-19T08:02:56;100192.14;;;5.83;80.73
77017;BME280;65949;53.132;17.930;2023-10-19T08:05:23;100190.16;;;5.91;80.69
77017;BME280;65949;53.132;17.930;2023-10-19T08:07:49;100184.38;;;6.01;80.58
77017;BME280;65949;53.132;17.930;2023-10-19T08:10:18;100182.86;;;6.08;80.59
77017;BME280;65949;53.132;17.930;2023-10-19T08:12:47;100185.77;;;6.15;80.39
77017;BME280;65949;53.132;17.930;2023-10-19T08:15:14;100179.54;;;6.21;80.32
77017;BME280;65949;53.132;17.930;2023-10-19T08:17:46;100177.69;;;6.25;80.21
77017;BME280;65949;53.132;17.930;2023-10-19T08:20:21;100173.16;;;6.26;80.30
77017;BME280;65949;53.132;17.930;2023-10-19T08:22:59;100163.42;;;6.29;80.41
77017;BME280;65949;53.132;17.930;2023-10-19T08:25:27;100166.04;;;6.34;80.44
77017;BME280;65949;53.132;17.930;2023-10-19T08:27:54;100158.67;;;6.37;80.52
77017;BME280;65949;53.132;17.930;2023-10-19T08:30:23;100157.60;;;6.42;80.18
77017;BME280;65949;53.132;17.930;2023-10-19T08:32:53;100156.39;;;6.46;80.62
77017;BME280;65949;53.132;17.930;2023-10-19T08:35:21;100153.61;;;6.55;80.36
77017;BME280;65949;53.132;17.930;2023-10-19T08:37:52;100153.09;;;6.62;80.21
77017;BME280;65949;53.132;17.930;2023-10-19T08:40:19;100150.92;;;6.70;80.05
77017;BME280;65949;53.132;17.930;2023-10-19T08:42:47;100152.49;;;6.76;79.67
77017;BME280;65949;53.132;17.930;2023-10-19T08:45:15;100152.15;;;6.81;79.64
77017;BME280;65949;53.132;17.930;2023-10-19T08:47:54;100157.72;;;6.87;79.73
77017;BME280;65949;53.132;17.930;2023-10-19T08:50:25;100152.83;;;6.92;79.29
77017;BME280;65949;53.132;17.930;2023-10-19T08:52:53;100147.17;;;6.96;79.48
77017;BME280;65949;53.132;17.930;2023-10-19T08:55:21;100143.19;;;7.00;79.21
77017;BME280;65949;53.132;17.930;2023-10-19T08:57:49;100141.21;;;7.04;79.57
77017;BME280;65949;53.132;17.930;2023-10-19T09:00:17;100140.92;;;7.02;79.45
77017;BME280;65949;53.132;17.930;2023-10-19T09:02:45;100137.30;;;7.03;79.47
77017;BME280;65949;53.132;17.930;2023-10-19T09:05:12;100132.41;;;7.05;79.08
77017;BME280;65949;53.132;17.930;2023-10-19T09:07:55;100132.59;;;7.07;79.54
77017;BME280;65949;53.132;17.930;2023-10-19T09:10:22;100126.28;;;7.08;79.35
77017;BME280;65949;53.132;17.930;2023-10-19T09:13:01;100123.56;;;7.10;78.97
77017;BME280;65949;53.132;17.930;2023-10-19T09:15:31;100123.27;;;7.11;78.86
77017;BME280;65949;53.132;17.930;2023-10-19T09:20:40;100123.10;;;7.16;78.75
77017;BME280;65949;53.132;17.930;2023-10-19T09:23:08;100119.79;;;7.21;78.81
77017;BME280;65949;53.132;17.930;2023-10-19T09:25:35;100114.30;;;7.26;79.09
77017;BME280;65949;53.132;17.930;2023-10-19T09:28:02;100103.98;;;7.30;78.28
77017;BME280;65949;53.132;17.930;2023-10-19T09:30:29;100100.19;;;7.35;77.95
77017;BME280;65949;53.132;17.930;2023-10-19T09:32:58;100102.82;;;7.39;78.09
77017;BME280;65949;53.132;17.930;2023-10-19T09:35:25;100098.30;;;7.42;78.28
77017;BME280;65949;53.132;17.930;2023-10-19T09:37:54;100092.83;;;7.46;78.71
77017;BME280;65949;53.132;17.930;2023-10-19T09:40:22;100081.54;;;7.52;78.75
77017;BME280;65949;53.132;17.930;2023-10-19T09:42:50;100074.27;;;7.57;78.32
77017;BME280;65949;53.132;17.930;2023-10-19T09:45:21;100064.62;;;7.62;78.20
77017;BME280;65949;53.132;17.930;2023-10-19T09:47:50;100061.23;;;7.65;77.98
77017;BME280;65949;53.132;17.930;2023-10-19T09:50:17;100060.10;;;7.68;78.17
77017;BME280;65949;53.132;17.930;2023-10-19T09:52:44;100055.48;;;7.68;77.81
77017;BME280;65949;53.132;17.930;2023-10-19T09:55:34;100051.15;;;7.69;77.98
77017;BME280;65949;53.132;17.930;2023-10-19T09:58:19;100039.73;;;7.71;77.93
77017;BME280;65949;53.132;17.930;2023-10-19T10:00:48;100037.02;;;7.75;77.66
77017;BME280;65949;53.132;17.930;2023-10-19T10:03:52;100030.29;;;7.84;77.70
77017;BME280;65949;53.132;17.930;2023-10-19T10:06:30;100020.05;;;7.98;77.54
77017;BME280;65949;53.132;17.930;2023-10-19T10:09:00;100013.94;;;8.08;76.74
77017;BME280;65949;53.132;17.930;2023-10-19T10:11:27;100013.07;;;8.17;76.61
77017;BME280;65949;53.132;17.930;2023-10-19T10:13:56;100019.40;;;8.22;76.40
77017;BME280;65949;53.132;17.930;2023-10-19T10:16:27;100023.48;;;8.29;76.11
77017;BME280;65949;53.132;17.930;2023-10-19T10:18:59;100022.53;;;8.36;75.68
77017;BME280;65949;53.132;17.930;2023-10-19T10:21:30;100023.05;;;8.45;75.63
77017;BME280;65949;53.132;17.930;2023-10-19T10:23:58;100017.98;;;8.52;74.63
77017;BME280;65949;53.132;17.930;2023-10-19T10:26:28;100017.17;;;8.58;74.84
77017;BME280;65949;53.132;17.930;2023-10-19T10:29:21;100022.62;;;8.64;74.71
77017;BME280;65949;53.132;17.930;2023-10-19T10:31:50;100028.30;;;8.70;74.11
77017;BME280;65949;53.132;17.930;2023-10-19T10:37:07;100031.20;;;8.79;73.89
77017;BME280;65949;53.132;17.930;2023-10-19T10:39:39;100026.58;;;8.82;73.52
77017;BME280;65949;53.132;17.930;2023-10-19T10:42:08;100024.76;;;8.83;73.60
77017;BME280;65949;53.132;17.930;2023-10-19T10:44:43;100015.45;;;8.83;72.84
77017;BME280;65949;53.132;17.930;2023-10-19T10:47:17;100014.55;;;8.78;72.86
77017;BME280;65949;53.132;17.930;2023-10-19T10:49:57;100018.53;;;8.72;72.96
77017;BME280;65949;53.132;17.930;2023-10-19T10:54:52;100015.14;;;8.67;73.56
77017;BME280;65949;53.132;17.930;2023-10-19T10:57:19;100013.42;;;8.70;73.28
77017;BME280;65949;53.132;17.930;2023-10-19T10:59:46;100018.91;;;8.73;72.67
77017;BME280;65949;53.132;17.930;2023-10-19T11:02:19;100013.61;;;8.73;72.72
77017;BME280;65949;53.132;17.930;2023-10-19T11:04:48;100013.36;;;8.77;72.97
77017;BME280;65949;53.132;17.930;2023-10-19T11:07:18;100006.93;;;8.81;73.19
77017;BME280;65949;53.132;17.930;2023-10-19T11:09:47;100007.23;;;8.85;73.18
77017;BME280;65949;53.132;17.930;2023-10-19T11:12:14;100004.71;;;8.92;73.08
77017;BME280;65949;53.132;17.930;2023-10-19T11:14:59;99996.46;;;8.97;72.83
77017;BME280;65949;53.132;17.930;2023-10-19T11:17:29;99990.48;;;9.01;72.79
77017;BME280;65949;53.132;17.930;2023-10-19T11:19:59;99982.08;;;9.04;72.66
77017;BME280;65949;53.132;17.930;2023-10-19T11:22:26;99967.48;;;9.08;72.90
77017;BME280;65949;53.132;17.930;2023-10-19T11:24:53;99961.87;;;9.12;72.69
77017;BME280;65949;53.132;17.930;2023-10-19T11:27:25;99968.15;;;9.11;72.70
77017;BME280;65949;53.132;17.930;2023-10-19T11:29:57;99965.50;;;9.14;72.53
77017;BME280;65949;53.132;17.930;2023-10-19T11:32:25;99962.80;;;9.11;72.02
77017;BME280;65949;53.132;17.930;2023-10-19T11:34:53;99958.74;;;9.11;72.09
77017;BME280;65949;53.132;17.930;2023-10-19T11:37:20;99955.15;;;9.12;72.40
77017;BME280;65949;53.132;17.930;2023-10-19T11:39:47;99955.63;;;9.16;72.40
77017;BME280;65949;53.132;17.930;2023-10-19T11:42:17;99951.89;;;9.18;72.19
77017;BME280;65949;53.132;17.930;2023-10-19T11:44:44;99948.92;;;9.22;72.19
77017;BME280;65949;53.132;17.930;2023-10-19T11:47:12;99941.86;;;9.23;71.84
77017;BME280;65949;53.132;17.930;2023-10-19T11:49:40;99933.53;;;9.20;71.89
77017;BME280;65949;53.132;17.930;2023-10-19T11:52:06;99925.26;;;9.17;71.99
77017;BME280;65949;53.132;17.930;2023-10-19T11:54:36;99920.59;;;9.19;72.00
77017;BME280;65949;53.132;17.930;2023-10-19T11:57:03;99915.07;;;9.23;71.48
77017;BME280;65949;53.132;17.930;2023-10-19T11:59:29;99911.95;;;9.24;71.08
77017;BME280;65949;53.132;17.930;2023-10-19T12:01:56;99901.86;;;9.26;70.96
77017;BME280;65949;53.132;17.930;2023-10-19T12:04:25;99908.05;;;9.30;71.03
77017;BME280;65949;53.132;17.930;2023-10-19T12:06:52;99904.77;;;9.34;71.03
77017;BME280;65949;53.132;17.930;2023-10-19T12:09:19;99900.09;;;9.32;70.99
77017;BME280;65949;53.132;17.930;2023-10-19T12:11:51;99900.05;;;9.28;70.85
77017;BME280;65949;53.132;17.930;2023-10-19T12:14:20;99899.33;;;9.25;70.94
77017;BME280;65949;53.132;17.930;2023-10-19T12:16:47;99895.61;;;9.26;70.80
77017;BME280;65949;53.132;17.930;2023-10-19T12:19:14;99889.38;;;9.27;70.60
77017;BME280;65949;53.132;17.930;2023-10-19T12:21:41;99887.87;;;9.28;70.49
77017;BME280;65949;53.132;17.930;2023-10-19T12:24:08;99884.59;;;9.26;70.47
77017;BME280;65949;53.132;17.930;2023-10-19T12:26:35;99890.89;;;9.26;70.66
77017;BME280;65949;53.132;17.930;2023-10-19T12:29:02;99887.52;;;9.29;70.47
77017;BME280;65949;53.132;17.930;2023-10-19T12:31:31;99885.73;;;9.34;70.34
77017;BME280;65949;53.132;17.930;2023-10-19T12:33:58;99883.29;;;9.38;70.24
77017;BME280;65949;53.132;17.930;2023-10-19T12:36:25;99882.17;;;9.41;70.01
77017;BME280;65949;53.132;17.930;2023-10-19T12:38:54;99878.58;;;9.48;70.28
77017;BME280;65949;53.132;17.930;2023-10-19T12:41:21;99875.39;;;9.57;70.32
77017;BME280;65949;53.132;17.930;2023-10-19T12:43:48;99874.48;;;9.65;70.15
77017;BME280;65949;53.132;17.930;2023-10-19T12:46:18;99867.80;;;9.72;70.00
77017;BME280;65949;53.132;17.930;2023-10-19T12:48:45;99866.67;;;9.71;69.56
77017;BME280;65949;53.132;17.930;2023-10-19T12:51:15;99866.57;;;9.67;69.60
77017;BME280;65949;53.132;17.930;2023-10-19T12:53:44;99866.70;;;9.61;69.28
77017;BME280;65949;53.132;17.930;2023-10-19T12:56:12;99854.80;;;9.53;69.11
77017;BME280;65949;53.132;17.930;2023-10-19T12:58:39;99844.04;;;9.48;68.98
77017;BME280;65949;53.132;17.930;2023-10-19T13:01:05;99841.51;;;9.43;68.89
77017;BME280;65949;53.132;17.930;2023-10-19T13:03:32;99838.59;;;9.42;69.01
77017;BME280;65949;53.132;17.930;2023-10-19T13:05:59;99836.05;;;9.46;69.16
77017;BME280;65949;53.132;17.930;2023-10-19T13:08:30;99827.24;;;9.48;68.47
77017;BME280;65949;53.132;17.930;2023-10-19T13:10:56;99826.82;;;9.48;68.25
77017;BME280;65949;53.132;17.930;2023-10-19T13:13:23;99822.55;;;9.50;68.19